createdAt,value
2023-03-20T00:01:13.795Z,2.10
2023-03-20T00:03:42.113Z,2.30
2023-03-20T00:06:17.614Z,2.58
2023-03-20T00:08:47.536Z,3.55
2023-03-20T00:11:31.270Z,1.90
2023-03-20T00:14:01.519Z,3.05
2023-03-20T00:16:33.895Z,2.47
2023-03-20T00:19:03.403Z,2.05
2023-03-20T00:21:33.145Z,2.42
2023-03-20T00:24:01.973Z,1.98
2023-03-20T00:26:34.933Z,2.60
2023-03-20T00:29:04.239Z,1.90
2023-03-20T00:31:33.905Z,2.40
2023-03-20T00:34:03.775Z,2.70
2023-03-20T00:36:34.197Z,3.05
2023-03-20T00:39:02.916Z,4.32
2023-03-20T00:41:34.679Z,4.20
2023-03-20T00:44:10.457Z,4.05
2023-03-20T00:46:40.997Z,3.80
2023-03-20T00:49:11.584Z,3.50
2023-03-20T00:51:42.507Z,4.43
2023-03-20T00:54:14.243Z,3.40
2023-03-20T00:56:45.442Z,3.28
2023-03-20T00:59:19.273Z,3.75
2023-03-20T01:01:47.953Z,3.63
2023-03-20T01:04:19.361Z,2.92
2023-03-20T01:06:49.492Z,3.42
2023-03-20T01:09:18.179Z,3.25
2023-03-20T01:11:47.235Z,2.67
2023-03-20T01:14:17.973Z,3.67
2023-03-20T01:16:46.500Z,3.95
2023-03-20T01:19:17.003Z,2.90
2023-03-20T01:21:45.482Z,2.60
2023-03-20T01:24:15.068Z,3.28
2023-03-20T01:26:46.784Z,3.47
2023-03-20T01:29:20.035Z,2.80
2023-03-20T01:31:48.837Z,3.33
2023-03-20T01:34:19.316Z,2.10
2023-03-20T01:36:51.365Z,1.88
2023-03-20T01:39:24.470Z,1.23
2023-03-20T01:41:54.352Z,1.80
2023-03-20T01:44:25.611Z,1.70
2023-03-20T01:47:00.151Z,1.50
2023-03-20T01:50:19.527Z,1.70
2023-03-20T01:52:51.597Z,1.50
2023-03-20T01:55:22.649Z,1.70
2023-03-20T01:58:00.716Z,1.63
2023-03-20T02:00:29.285Z,1.90
2023-03-20T02:02:58.594Z,1.90
2023-03-20T02:05:47.625Z,1.83
2023-03-20T02:08:25.788Z,2.70
2023-03-20T02:10:56.112Z,1.30
2023-03-20T02:13:32.298Z,1.30
2023-03-20T02:16:05.600Z,1.13
2023-03-20T02:18:59.237Z,1.13
2023-03-20T02:22:04.640Z,1.20
2023-03-20T02:25:15.585Z,1.13
2023-03-20T02:28:06.934Z,1.98
2023-03-20T02:30:54.156Z,1.67
2023-03-20T02:34:06.745Z,1.60
2023-03-20T02:37:19.571Z,1.20
2023-03-20T02:39:58.738Z,1.20
2023-03-20T02:42:36.321Z,1.73
2023-03-20T02:45:16.105Z,1.70
2023-03-20T02:47:51.297Z,2.40
2023-03-20T02:50:29.778Z,1.40
2023-03-20T02:53:08.638Z,1.85
2023-03-20T02:55:45.523Z,2.22
2023-03-20T02:58:17.280Z,1.48
2023-03-20T03:00:52.343Z,1.52
2023-03-20T03:03:25.693Z,1.38
2023-03-20T03:05:59.137Z,1.70
2023-03-20T03:08:36.406Z,1.42
2023-03-20T03:11:07.753Z,1.50
2023-03-20T03:13:40.387Z,1.35
2023-03-20T03:16:15.785Z,1.60
2023-03-20T03:18:47.510Z,1.70
2023-03-20T03:21:18.560Z,1.60
2023-03-20T03:23:50.291Z,2.10
2023-03-20T03:26:23.782Z,2.47
2023-03-20T03:28:55.784Z,1.52
2023-03-20T03:31:25.947Z,1.63
2023-03-20T03:33:57.653Z,1.42
2023-03-20T03:36:37.844Z,1.80
2023-03-20T03:39:18.591Z,1.42
2023-03-20T03:41:50.834Z,1.40
2023-03-20T03:44:26.344Z,1.23
2023-03-20T03:46:58.781Z,1.30
2023-03-20T03:49:34.214Z,1.65
2023-03-20T03:52:06.966Z,1.65
2023-03-20T03:54:41.387Z,1.70
2023-03-20T03:57:38.282Z,1.70
2023-03-20T04:00:13.062Z,1.65
2023-03-20T04:02:43.461Z,1.40
2023-03-20T04:05:13.207Z,2.00
2023-03-20T04:07:45.777Z,1.88
2023-03-20T04:10:15.373Z,1.77
2023-03-20T04:12:46.122Z,1.80
2023-03-20T04:15:15.987Z,1.75
2023-03-20T04:17:45.255Z,2.05
2023-03-20T04:20:16.209Z,1.95
2023-03-20T04:22:44.467Z,1.83
2023-03-20T04:25:19.905Z,1.60
2023-03-20T04:27:48.529Z,1.27
2023-03-20T04:30:25.278Z,1.50
2023-03-20T04:33:08.432Z,1.67
2023-03-20T04:35:45.597Z,2.22
2023-03-20T04:38:15.816Z,2.60
2023-03-20T04:40:46.710Z,1.83
2023-03-20T04:43:16.157Z,1.23
2023-03-20T04:45:44.454Z,1.30
2023-03-20T04:48:12.679Z,1.50
2023-03-20T04:50:41.560Z,1.70
2023-03-20T04:53:09.730Z,2.35
2023-03-20T04:55:38.130Z,2.38
2023-03-20T04:58:07.925Z,1.95
2023-03-20T05:00:36.501Z,1.55
2023-03-20T05:03:04.933Z,1.30
2023-03-20T05:05:34.565Z,1.20
2023-03-20T05:08:03.425Z,1.30
2023-03-20T05:10:35.042Z,1.38
2023-03-20T05:13:14.280Z,1.15
2023-03-20T05:16:03.473Z,2.17
2023-03-20T05:18:42.116Z,2.00
2023-03-20T05:21:29.514Z,1.58
2023-03-20T05:24:29.279Z,1.25
2023-03-20T05:27:09.137Z,1.00
2023-03-20T05:29:57.645Z,2.00
2023-03-20T05:32:44.048Z,1.13
2023-03-20T05:35:31.882Z,1.88
2023-03-20T05:38:26.822Z,1.33
2023-03-20T05:41:14.197Z,1.17
2023-03-20T05:43:53.249Z,1.20
2023-03-20T05:46:41.045Z,1.55
2023-03-20T05:49:27.699Z,2.20
2023-03-20T05:52:08.019Z,4.93
2023-03-20T05:54:44.627Z,2.55
2023-03-20T05:57:35.229Z,2.15
2023-03-20T06:00:22.590Z,2.70
2023-03-20T06:03:12.266Z,2.08
2023-03-20T06:06:03.110Z,1.45
2023-03-20T06:08:31.531Z,1.60
2023-03-20T06:11:01.469Z,1.55
2023-03-20T06:13:30.386Z,1.55
2023-03-20T06:16:01.323Z,2.25
2023-03-20T06:18:31.308Z,1.90
2023-03-20T06:21:00.233Z,3.05
2023-03-20T06:23:30.508Z,4.50
2023-03-20T06:25:59.467Z,2.63
2023-03-20T06:28:28.497Z,3.63
2023-03-20T06:31:03.276Z,2.00
2023-03-20T06:33:32.958Z,2.22
2023-03-20T06:36:02.296Z,1.75
2023-03-20T06:38:32.664Z,2.05
2023-03-20T06:41:07.163Z,1.77
2023-03-20T06:43:35.825Z,1.75
2023-03-20T06:46:04.011Z,2.72
2023-03-20T06:48:34.768Z,2.53
2023-03-20T06:51:07.840Z,2.08
2023-03-20T06:53:44.380Z,0.95
2023-03-20T06:56:18.500Z,1.98
2023-03-20T06:58:47.170Z,2.90
2023-03-20T07:01:19.775Z,2.90
2023-03-20T07:03:49.930Z,2.67
2023-03-20T07:06:23.318Z,3.42
2023-03-20T07:08:53.075Z,2.60
2023-03-20T07:11:22.502Z,1.85
2023-03-20T07:13:54.609Z,1.10
2023-03-20T07:16:33.990Z,1.50
2023-03-20T07:19:03.844Z,1.70
2023-03-20T07:21:36.098Z,1.60
2023-03-20T07:24:04.721Z,1.50
2023-03-20T07:26:32.944Z,1.88
2023-03-20T07:29:02.072Z,1.70
2023-03-20T07:31:31.414Z,1.42
2023-03-20T07:34:14.427Z,1.92
2023-03-20T07:36:43.729Z,1.35
2023-03-20T07:39:15.143Z,2.45
2023-03-20T07:41:48.414Z,2.38
2023-03-20T07:44:26.600Z,1.83
2023-03-20T07:46:55.069Z,2.22
2023-03-20T07:49:26.295Z,2.45
2023-03-20T07:51:55.197Z,2.90
2023-03-20T07:54:24.253Z,3.22
2023-03-20T07:56:53.133Z,1.77
2023-03-20T07:59:21.552Z,2.17
2023-03-20T08:01:49.766Z,3.20
2023-03-20T08:04:19.913Z,2.75
2023-03-20T08:06:49.776Z,3.72
2023-03-20T08:09:18.265Z,2.97
2023-03-20T08:11:46.876Z,2.53
2023-03-20T08:14:14.872Z,2.97
2023-03-20T08:16:43.305Z,3.28
2023-03-20T08:19:11.570Z,3.13
2023-03-20T08:21:40.446Z,3.38
2023-03-20T08:24:10.371Z,3.28
2023-03-20T08:26:38.739Z,3.45
2023-03-20T08:29:07.339Z,3.50
2023-03-20T08:31:35.477Z,3.88
2023-03-20T08:34:03.833Z,3.95
2023-03-20T08:36:32.070Z,4.75
2023-03-20T08:39:00.430Z,3.65
2023-03-20T08:41:30.133Z,2.78
2023-03-20T08:43:58.302Z,3.80
2023-03-20T08:46:26.547Z,4.13
2023-03-20T08:48:54.857Z,4.30
2023-03-20T08:51:23.011Z,4.30
2023-03-20T08:53:51.017Z,3.67
2023-03-20T08:56:19.429Z,3.95
2023-03-20T08:58:48.981Z,3.95
2023-03-20T09:01:17.346Z,3.45
2023-03-20T09:03:45.512Z,3.53
2023-03-20T09:06:13.897Z,4.57
2023-03-20T09:08:41.985Z,3.70
2023-03-20T09:11:10.778Z,4.03
2023-03-20T09:13:39.552Z,3.65
2023-03-20T09:16:11.108Z,3.10
2023-03-20T09:18:40.213Z,3.10
2023-03-20T09:21:09.193Z,4.38
2023-03-20T09:23:37.364Z,4.70
2023-03-20T09:26:06.323Z,2.92
2023-03-20T09:28:34.351Z,4.50
2023-03-20T09:31:02.920Z,3.28
2023-03-20T09:33:32.797Z,2.83
2023-03-20T09:36:01.353Z,3.35
2023-03-20T09:38:29.711Z,4.18
2023-03-20T09:41:00.750Z,3.33
2023-03-20T09:43:39.590Z,2.53
2023-03-20T09:46:21.550Z,3.58
2023-03-20T09:48:58.557Z,2.75
2023-03-20T09:51:37.249Z,3.38
2023-03-20T09:54:11.403Z,3.58
2023-03-20T09:56:39.884Z,5.20
2023-03-20T09:59:09.247Z,4.20
2023-03-20T10:01:45.482Z,3.92
2023-03-20T10:04:15.662Z,3.90
2023-03-20T10:06:44.367Z,5.10
2023-03-20T10:09:18.087Z,4.93
2023-03-20T10:12:10.343Z,5.50
2023-03-20T10:14:49.384Z,8.30
2023-03-20T10:17:30.771Z,6.38
2023-03-20T10:20:05.382Z,5.30
2023-03-20T10:22:36.948Z,6.60
2023-03-20T10:25:09.868Z,4.85
2023-03-20T10:27:44.084Z,7.88
2023-03-20T10:30:31.642Z,6.40
2023-03-20T10:33:13.563Z,5.10
2023-03-20T10:35:55.057Z,6.70
2023-03-20T10:38:33.470Z,5.63
2023-03-20T10:41:02.050Z,6.38
2023-03-20T10:43:38.179Z,6.93
2023-03-20T10:46:13.638Z,9.98
2023-03-20T10:48:46.706Z,5.45
2023-03-20T10:51:19.350Z,7.65
2023-03-20T10:53:50.272Z,6.40
2023-03-20T10:56:28.568Z,6.25
2023-03-20T10:59:03.412Z,5.93
2023-03-20T11:01:35.024Z,6.00
2023-03-20T11:04:04.287Z,5.55
2023-03-20T11:06:40.623Z,7.05
2023-03-20T11:09:18.534Z,5.15
2023-03-20T11:11:48.386Z,4.78
2023-03-20T11:14:20.126Z,6.43
2023-03-20T11:16:53.476Z,4.13
2023-03-20T11:19:23.729Z,3.67
2023-03-20T11:21:56.391Z,4.57
2023-03-20T11:24:29.060Z,6.05
2023-03-20T11:27:08.047Z,5.68
2023-03-20T11:29:37.182Z,4.32
2023-03-20T11:32:08.951Z,4.63
2023-03-20T11:34:41.153Z,4.70
2023-03-20T11:37:25.928Z,4.72
2023-03-20T11:40:08.446Z,7.40
2023-03-20T11:42:37.458Z,5.18
2023-03-20T11:45:09.210Z,7.07
2023-03-20T11:47:38.572Z,4.97
2023-03-20T11:50:08.530Z,5.32
2023-03-20T11:52:41.365Z,5.05
2023-03-20T11:55:26.331Z,5.18
2023-03-20T11:57:58.122Z,3.83
2023-03-20T12:00:30.070Z,3.65
2023-03-20T12:02:58.292Z,6.20
2023-03-20T12:05:32.557Z,4.03
2023-03-20T12:08:05.083Z,7.43
2023-03-20T12:10:39.615Z,4.95
2023-03-20T12:13:15.040Z,4.95
2023-03-20T12:15:47.819Z,3.50
2023-03-20T12:18:23.545Z,4.18
2023-03-20T12:21:06.637Z,5.68
2023-03-20T12:23:42.015Z,5.53
2023-03-20T12:26:14.067Z,3.75
2023-03-20T12:28:48.887Z,4.80
2023-03-20T12:31:25.441Z,4.40
2023-03-20T12:33:58.626Z,3.80
2023-03-20T12:36:32.732Z,4.25
2023-03-20T12:39:04.377Z,5.55
2023-03-20T12:41:42.495Z,4.80
2023-03-20T12:44:37.456Z,3.75
2023-03-20T12:47:19.628Z,4.05
2023-03-20T12:49:57.746Z,4.40
2023-03-20T12:52:38.466Z,4.32
2023-03-20T12:55:22.986Z,5.00
2023-03-20T12:58:02.732Z,4.68
2023-03-20T13:00:35.688Z,3.85
2023-03-20T13:03:22.566Z,3.40
2023-03-20T13:06:03.740Z,4.60
2023-03-20T13:09:14.647Z,5.10
2023-03-20T13:11:50.791Z,3.30
2023-03-20T13:14:27.121Z,4.95
2023-03-20T13:17:02.422Z,2.72
2023-03-20T13:19:41.558Z,2.78
2023-03-20T13:22:18.455Z,4.60
2023-03-20T13:24:51.773Z,2.15
2023-03-20T13:27:36.719Z,2.42
2023-03-20T13:30:15.683Z,2.17
2023-03-20T13:32:56.766Z,2.08
2023-03-20T13:35:37.095Z,3.25
2023-03-20T13:38:17.645Z,2.10
2023-03-20T13:40:49.128Z,3.97
2023-03-20T13:43:29.189Z,1.90
2023-03-20T13:46:08.636Z,2.13
2023-03-20T13:48:40.850Z,1.60
2023-03-20T13:51:20.453Z,1.65
2023-03-20T13:53:59.793Z,1.90
2023-03-20T13:56:39.993Z,4.95
2023-03-20T13:59:36.101Z,2.50
2023-03-20T14:02:25.719Z,1.77
2023-03-20T14:05:03.590Z,1.83
2023-03-20T14:07:34.347Z,2.00
2023-03-20T14:10:39.775Z,2.20
2023-03-20T14:13:19.775Z,1.88
2023-03-20T14:15:57.041Z,2.10
2023-03-20T14:18:28.469Z,2.00
2023-03-20T14:21:01.298Z,3.47
2023-03-20T14:23:36.370Z,2.22
2023-03-20T14:26:12.784Z,2.53
2023-03-20T14:28:56.881Z,4.65
2023-03-20T14:31:32.872Z,2.75
2023-03-20T14:34:10.402Z,2.38
2023-03-20T14:37:00.293Z,2.95
2023-03-20T14:39:43.563Z,3.45
2023-03-20T14:42:28.413Z,4.05
2023-03-20T14:45:28.206Z,4.50
2023-03-20T14:48:05.563Z,4.40
2023-03-20T14:50:38.043Z,5.72
2023-03-20T14:53:17.609Z,4.15
2023-03-20T14:55:53.829Z,4.63
2023-03-20T14:58:51.096Z,5.30
2023-03-20T15:01:27.713Z,3.75
2023-03-20T15:04:02.688Z,3.50
2023-03-20T15:06:33.843Z,5.30
2023-03-20T15:09:08.790Z,4.05
2023-03-20T15:11:38.805Z,4.00
2023-03-20T15:14:10.641Z,4.15
2023-03-20T15:16:39.883Z,3.25
2023-03-20T15:19:18.943Z,3.60
2023-03-20T15:21:50.596Z,4.93
2023-03-20T15:24:24.513Z,4.43
2023-03-20T15:26:56.018Z,2.95
2023-03-20T15:29:25.665Z,5.10
2023-03-20T15:32:12.788Z,3.22
2023-03-20T15:34:45.258Z,2.70
2023-03-20T15:37:16.606Z,3.45
2023-03-20T15:39:47.671Z,4.45
2023-03-20T15:42:18.864Z,2.80
2023-03-20T15:44:49.408Z,2.35
2023-03-20T15:47:22.261Z,2.33
2023-03-20T15:49:54.801Z,2.63
2023-03-20T15:52:30.195Z,3.90
2023-03-20T15:55:01.273Z,2.58
2023-03-20T15:57:35.850Z,3.83
2023-03-20T16:00:07.509Z,3.08
2023-03-20T16:02:38.100Z,2.95
2023-03-20T16:05:13.982Z,4.55
2023-03-20T16:07:43.494Z,3.60
2023-03-20T16:10:21.280Z,2.80
2023-03-20T16:12:53.137Z,3.20
2023-03-20T16:15:23.307Z,3.53
2023-03-20T16:17:56.209Z,3.38
2023-03-20T16:20:30.854Z,3.72
2023-03-20T16:23:05.198Z,4.00
2023-03-20T16:25:37.063Z,4.60
2023-03-20T16:28:07.809Z,3.20
2023-03-20T16:30:38.095Z,4.25
2023-03-20T16:33:11.290Z,6.97
2023-03-20T16:35:45.696Z,5.82
2023-03-20T16:38:25.929Z,4.50
2023-03-20T16:40:56.804Z,3.40
2023-03-20T16:43:29.282Z,4.80
2023-03-20T16:46:05.016Z,4.45
2023-03-20T16:48:37.862Z,5.85
2023-03-20T16:51:17.489Z,4.50
2023-03-20T16:53:48.608Z,4.50
2023-03-20T16:56:23.358Z,3.67
2023-03-20T16:58:55.995Z,3.88
2023-03-20T17:01:29.195Z,4.88
2023-03-20T17:04:00.270Z,4.10
2023-03-20T17:06:46.394Z,4.10
2023-03-20T17:09:26.198Z,2.63
2023-03-20T17:12:03.082Z,4.22
2023-03-20T17:14:35.991Z,2.97
2023-03-20T17:17:13.960Z,3.13
2023-03-20T17:19:44.285Z,3.38
2023-03-20T17:22:19.104Z,7.45
2023-03-20T17:24:50.972Z,3.67
2023-03-20T17:27:26.150Z,3.15
2023-03-20T17:29:57.238Z,3.05
2023-03-20T17:32:26.401Z,3.83
2023-03-20T17:34:55.353Z,3.80
2023-03-20T17:37:30.353Z,3.70
2023-03-20T17:40:02.644Z,3.15
2023-03-20T17:42:35.415Z,3.13
2023-03-20T17:45:08.144Z,3.85
2023-03-20T17:47:38.282Z,4.00
2023-03-20T17:50:08.892Z,3.03
2023-03-20T17:52:39.843Z,3.22
2023-03-20T17:55:11.314Z,4.18
2023-03-20T17:57:41.366Z,3.90
2023-03-20T18:00:16.694Z,4.63
2023-03-20T18:02:49.063Z,3.00
2023-03-20T18:05:18.568Z,3.40
2023-03-20T18:07:54.866Z,2.92
2023-03-20T18:10:33.856Z,3.85
2023-03-20T18:13:08.975Z,3.35
2023-03-20T18:15:42.010Z,3.45
2023-03-20T18:18:24.155Z,9.40
2023-03-20T18:20:54.951Z,5.53
2023-03-20T18:23:24.674Z,2.65
2023-03-20T18:25:53.030Z,3.42
2023-03-20T18:28:23.187Z,3.45
2023-03-20T18:30:52.046Z,3.50
2023-03-20T18:33:26.668Z,4.00
2023-03-20T18:35:57.866Z,3.55
2023-03-20T18:38:33.693Z,3.60
2023-03-20T18:41:02.470Z,2.78
2023-03-20T18:43:31.454Z,4.53
2023-03-20T18:45:59.601Z,3.33
2023-03-20T18:48:31.923Z,5.25
2023-03-20T18:51:02.732Z,6.40
2023-03-20T18:53:34.303Z,3.17
2023-03-20T18:56:15.457Z,3.03
2023-03-20T18:58:46.763Z,3.65
2023-03-20T19:01:15.949Z,3.67
2023-03-20T19:03:45.366Z,3.40
2023-03-20T19:06:15.163Z,3.35
2023-03-20T19:08:46.118Z,3.10
2023-03-20T19:11:17.810Z,3.88
2023-03-20T19:13:49.676Z,3.95
2023-03-20T19:16:24.589Z,3.53
2023-03-20T19:18:53.907Z,4.82
2023-03-20T19:21:26.253Z,3.60
2023-03-20T19:23:57.861Z,5.78
2023-03-20T19:26:27.513Z,3.65
2023-03-20T19:28:57.898Z,3.45
2023-03-20T19:31:26.988Z,4.00
2023-03-20T19:33:56.090Z,3.45
2023-03-20T19:36:29.080Z,3.70
2023-03-20T19:39:01.348Z,4.13
2023-03-20T19:41:32.227Z,3.15
2023-03-20T19:44:06.726Z,3.05
2023-03-20T19:46:42.537Z,3.45
2023-03-20T19:49:30.448Z,4.03
2023-03-20T19:52:10.865Z,2.83
2023-03-20T19:55:07.582Z,3.13
2023-03-20T19:57:46.501Z,3.50
2023-03-20T20:00:55.854Z,4.97
2023-03-20T20:03:19.142Z,4.90
2023-03-20T20:05:51.826Z,6.07
2023-03-20T20:08:38.926Z,3.85
2023-03-20T20:11:16.331Z,4.55
2023-03-20T20:14:04.723Z,5.20
2023-03-20T20:16:38.256Z,3.72
2023-03-20T20:19:13.022Z,7.75
2023-03-20T20:24:37.874Z,5.05
2023-03-20T20:27:18.352Z,4.50
2023-03-20T20:29:53.046Z,8.15
2023-03-20T20:32:26.596Z,5.68
2023-03-20T20:35:43.444Z,6.07
2023-03-20T20:40:44.569Z,7.45
2023-03-20T20:43:39.073Z,10.50
2023-03-20T20:46:11.725Z,7.63
2023-03-20T20:48:43.472Z,7.63
2023-03-20T20:51:11.709Z,5.65
2023-03-20T20:53:40.180Z,4.22
2023-03-20T20:56:09.761Z,4.90
2023-03-20T20:58:39.552Z,5.00
2023-03-20T21:01:07.798Z,6.10
2023-03-20T21:03:36.259Z,5.25
2023-03-20T21:06:05.626Z,4.30
2023-03-20T21:08:34.907Z,3.10
2023-03-20T21:11:03.028Z,5.10
2023-03-20T21:13:34.539Z,6.18
2023-03-20T21:16:04.391Z,6.40
2023-03-20T21:18:32.672Z,4.30
2023-03-20T21:21:07.690Z,4.43
2023-03-20T21:23:36.064Z,2.90
2023-03-20T21:26:04.919Z,2.97
2023-03-20T21:28:36.234Z,5.18
2023-03-20T21:31:24.127Z,2.40
2023-03-20T21:33:55.240Z,2.70
2023-03-20T21:36:24.071Z,3.22
2023-03-20T21:39:09.213Z,3.50
2023-03-20T21:41:39.104Z,3.78
2023-03-20T21:44:08.374Z,3.70
2023-03-20T21:47:10.447Z,6.22
2023-03-20T21:53:09.166Z,3.53
2023-03-20T21:55:48.254Z,4.00
2023-03-20T21:58:36.760Z,3.40
2023-03-20T22:04:06.387Z,3.65
2023-03-20T22:12:43.906Z,3.38
2023-03-20T22:15:33.894Z,3.97
2023-03-20T22:23:54.853Z,3.45
2023-03-20T22:35:04.951Z,3.38
2023-03-20T22:40:59.226Z,4.00
2023-03-20T22:43:44.547Z,4.20
2023-03-20T22:46:03.203Z,6.35
2023-03-20T22:48:34.205Z,7.43
2023-03-20T22:51:10.720Z,6.75
2023-03-20T22:53:40.408Z,5.10
2023-03-20T22:56:09.514Z,5.95
2023-03-20T22:58:37.968Z,4.30
2023-03-20T23:01:06.825Z,3.90
2023-03-20T23:03:41.440Z,4.20
2023-03-20T23:06:15.650Z,4.13
2023-03-20T23:08:50.744Z,4.15
2023-03-20T23:11:23.486Z,7.57
2023-03-20T23:13:52.490Z,4.38
2023-03-20T23:16:21.598Z,3.92
2023-03-20T23:18:49.718Z,4.68
2023-03-20T23:21:18.029Z,4.20
2023-03-20T23:23:47.669Z,3.83
2023-03-20T23:26:17.673Z,4.45
2023-03-20T23:28:47.528Z,6.10
2023-03-20T23:31:18.005Z,3.80
2023-03-20T23:33:50.183Z,5.07
2023-03-20T23:36:34.584Z,3.08
2023-03-20T23:39:06.209Z,3.80
2023-03-20T23:42:07.889Z,3.33
2023-03-20T23:44:23.483Z,3.80
2023-03-20T23:46:51.606Z,3.10
2023-03-20T23:49:19.775Z,3.17
2023-03-20T23:51:48.064Z,3.60
2023-03-20T23:54:17.492Z,8.10
2023-03-20T23:56:45.635Z,4.28
2023-03-20T23:59:21.525Z,5.57
